Kezdőlap
METAR-TAF:

METAR-TAF

Repülőterek :

New Delhi, India

földrajzi szélesség: 28-34N, földrajzi hosszúság: 077-07E, magasság: 220 m

Jelenlegi meteorológiai megfigyelések

A jelentés 34 perccel ezelõtt készült, 23:00 UTC
Kelet-északkeleti szél 4 kt
Hőmérséklet 32°C
Páratartalom 17%
Légköri nyomás 1004 hPa
Látótávolság: 3500 m
Száraz légköri homály

METAR: VIDP 202300Z 06004KT 3500 HZ NSC 32/04 Q1004 NOSIG

Idő: 05:04 (23:34 UTC)

Előrejelzés

A jelentés 3 órával és 34 perccel ezelõtt készült, 20:00 UTC
Az előrejelzés 20-én 21 óra UTC és 21-én 06 óra UTC között érvényes
Északi szél 8 kt
Látótávolság: 3000 m
Száraz légköri homály

TAF: VIDP 202000Z 2021/2106 35008KT 3000 HZ NSC

Meteorológiai megfigyelések és előrejelzések több, mint 4000 repülőtéren (METAR és TAF jelentéseket).

A térképen piros és sárga pontok jelzik az elérhető meteorológiai állomásokat.

Mozgassa az egeret a pont fölött, hogy megjelenjen az állomás neve.

Azután kattintson az időjárási megfigyelések és előrejelzések megtekintéséhez.

A térkép megváltoztatása: kattintson a fekete keresztel jelölt zöld gombra ráközelítéshez, a vonallal jelölt zöld gombra távolításhoz, vagy a zöld nyilakra a szomszédos térképek eléréséhez.


METAR-TAF: